Ride Results

Waterloo (21-03-2004)
Ride distance: 100.0 km Elevator

Outcomes - Waterloo (21-03-2004)
Division No. of Entries Retired / DNE Completed Withdrawn Ineligible V/O Percentage Completed
HW 11 6 2 1 - 2 72.73%
MW 33 13 12 - 6 2 75.76%
LW 14 7 5 - - 2 85.71%
JN 5 4 1 - - - 100.00%
Totals 63 30 20 1 6 6 79.37%
Results - Waterloo (21-03-2004)
No. Rider Horse Place Time Leg Speeds Total
Km/Hr
H/R bpm
Heavyweight
44 Gail Pattison Kaysand Khatir 1 8:01:00 13.5, 11.9, 11.6 12.47 43, 43, 47, 46 (Avg:45)
48 Rod Mills Avondale Jay 2 8:46:00 13.4, 10.9, 9.3 11.41 32, 45, 54, 47 (Avg:48)
50 Sandy Horton Windwood Zaatai Retired/DNE L2 6:06:00 12.9, 13.2 13.11 38, 38, 47 (Avg:42)
43 Jenny Moncur Wyndham Matilda Retired/DNE L2 6:08:00 13.3, 12.7 13.04 40, 40, 44 (Avg:42)
46 Pam Anderson Ridgecrest Lantalya Retired/DNE L2 7:54:00 11.6, 8.9 10.13 44, 55, 54 (Avg:54)
49 Simon Thomas Beau Jess Retired/DNE L2 7:54:00 13.0, 8.2 10.13 32, 45, 51 (Avg:48)
42 Aaron Gay Clovelly Park Amir Razeem Retired/DNE L2 8:25:00 9.0, 10.0 9.50 35, 50, 56 (Avg:53)
47 Stephen Scott Qadir Retired/DNE L2 9:08:00 9.1, 8.4 8.76 33, 45, 53 (Avg:49)
56 Greg May Cavanagh Faalair Lame L1 0:00:00 15.7 - 33, 43 (Avg:43)
45 Max Oakley Shuja Lady Di Withdrawn L1 0:00:00 - - 30, 38 (Avg:38)
51 Rebecca Perkins Kangala Topaz Metina Lame L1 0:00:00 13.2 - 35, 43 (Avg:43)
Middleweight
82 Meg Wade Castlebar Tradition 1 5:47:00 16.7, 16.5, 20.3 17.29 36, 38, 42, 43 (Avg:41)
77 Celine Legros Kelkette Park Lydia 2 5:49:00 14.9, 18.0, 21.8 17.19 31, 47, 49, 43 (Avg:46)
86 Anne Simmons Hot Stuff 3 5:50:00 16.7, 16.5, 19.3 17.14 37, 49, 52, 48 (Avg:49)
69 Sue Cavill Koonwarra Kavalier 4 5:57:00 17.9, 21.6, 10.7 16.81 32, 37, 48, 40 (Avg:41)
79 Beverley Johnson Tanga Park Daoud 4 5:57:00 17.9, 15.3, 17.9 16.81 34, 44, 45, 49 (Avg:46)
78 Jo-Anne Francis Tynedale Ali Shamahn 6 6:33:00 16.7, 15.2, 12.9 15.27 34, 40, 44, 43 (Avg:42)
84 Kristi Bibby Batik Marla 7 7:48:00 13.4, 13.3, 10.9 12.82 33, 41, 52, 47 (Avg:46)
65 Jennifer Carland Musical Gully Tenor 7 7:48:00 15.1, 12.2, 10.5 12.82 33, 43, 46, 47 (Avg:45)
95 Bryan Dupuy Kelkette Park Silver Insignia 9 8:03:00 13.1, 12.3, 11.4 12.42 33, 44, 44, 43 (Avg:43)
54 Hans Peuker Marybank Celia 9 8:03:00 13.1, 12.3, 11.4 12.42 30, 37, 46, 46 (Avg:43)
85 Barry Sinclair Chipawood Micah 11 8:45:00 12.4, 11.0, 10.3 11.43 36, 46, 49, 46 (Avg:47)
73 Sheryl Herbert Just Tarquis 12 9:05:00 12.4, 10.7, 9.3 11.01 26, 39, 45, 46 (Avg:43)
88 Vanessa Perry Conderosa Sovuryn Retired/DNE L2 4:48:00 19.6, 14.4 16.67 40, 44, 50 (Avg:47)
53 Layla Archer Glentana Khala Retired/DNE L2 6:04:00 15.0, 11.7 13.19 39, 51, 55 (Avg:53)
52 Jil Bourton Veloce Mamma Mia Retired/DNE L2 6:04:00 15.0, 11.7 13.19 38, 40, 49 (Avg:44)
89 Brooke McMillan Sandine Princess Raj Retired/DNE L2 6:06:00 12.9, 13.2 13.11 37, 46, 48 (Avg:47)
92 Ross Chisholm Manana Travis Retired/DNE L2 6:08:00 13.3, 12.7 13.04 36, 39, 46 (Avg:42)
55 Kelly Simon Regency Park Rashaan Retired/DNE L2 6:09:00 12.8, 13.1 13.01 42, 48, 49 (Avg:48)
83 Asher Batty Magic Glenn Versus Retired/DNE L2 6:25:00 12.0, 12.9 12.47 40, 43, 49 (Avg:46)
66 Jennifer Pitman Meg Retired/DNE L2 6:35:00 12.9, 11.4 12.15 38, 53, 59 (Avg:56)
94 Cathy Preston Davequ Retired/DNE L2 6:35:00 12.9, 11.4 12.15 36, 41, 49 (Avg:45)
70 Marlene Harrigan Colorado City Retired/DNE L2 7:16:00 12.8, 9.6 11.01 35, 39, 53 (Avg:46)
68 Gail Pound PS Moon Dreams (Miss Nook) Retired/DNE L2 7:16:00 12.8, 9.6 11.01 39, 44, 55 (Avg:49)
67 Melanie Scott Innovation Retired/DNE L2 7:55:00 10.1, 10.0 10.11 34, 41, 49 (Avg:45)
72 Sue Parsons Karumba Quixote Retired/DNE L2 8:28:00 9.9, 9.0 9.45 34, 40, 41 (Avg:40)
91 Hayley Grellet Darjan Jeesabelle Lame L2 0:00:00 16.1, 16.7 - 47, 43, 44 (Avg:43)
80 Corey Nix Magic Glenn Annie Lame L2 0:00:00 12.0, 12.9 - 38, 40, 45 (Avg:42)
87 Tracy Brandon Aloha Princedom 0:00:00 - - -
74 Louise McCormack Duo Park Ume 0:00:00 - - -
76 Fiona Passarin Ernie 0:00:00 - - -
81 Kristie Taprell Castlebar Khalifa 0:00:00 - - -
71 Julie Woods Ennerdale Nuno 0:00:00 - - -
75 Leanne Wyllie Dunbraeton Farah 0:00:00 - - -
Lightweight
13 Bronwyn McMahon Joey 1 6:05:00 17.9, 15.2, 16.2 16.44 36, 44, 47, 49 (Avg:46)
10 Adrienne Smith Jodie 2 7:10:00 13.4, 14.4, 13.9 13.95 42, 49, 49, 51 (Avg:49)
2 Trish Reeves Maya 3 7:14:00 16.9, 13.3, 10.7 13.82 35, 39, 43, 44 (Avg:42)
14 Leanne McDonald Coranderrk Indira 4 7:48:00 13.4, 13.3, 10.9 12.82 31, 37, 40, 44 (Avg:40)
5 Jessica Remfry Ennerdale Meccano 5 9:05:00 12.4, 10.7, 9.3 11.01 31, 36, 43, 38 (Avg:39)
11 Jacinta Smith Magic Glenn Axa Retired/DNE L2 6:25:00 12.0, 12.9 12.47 37, 43, 42 (Avg:42)
9 Tracy-Lee Feltrin Kelkette Park Durack Retired/DNE L2 6:49:00 12.5, 11.0 11.74 38, 42, 42 (Avg:42)
15 Shannon Decker Graceland Amira Retired/DNE L2 7:54:00 10.9, 9.4 10.13 32, 38, 50 (Avg:44)
7 Lois Sharam Musical Gully Tambourine Retired/DNE L2 8:06:00 10.1, 9.6 9.88 38, 39, 43 (Avg:41)
8 Dianne Stares Sir Charles Retired/DNE L2 8:06:00 10.1, 9.6 9.88 35, 37, 50 (Avg:43)
3 Joyce Pilkington Karumba Cassidy Retired/DNE L2 8:16:00 9.5, 9.7 9.68 33, 39, 51 (Avg:45)
18 Mary Hughes Karumba Beaujolais Retired/DNE L2 8:28:00 9.9, 9.0 9.45 34, 42, 49 (Avg:45)
16 Diane Costello Mylex Laylah Lame L3 0:00:00 14.3, 13.5, 15.7 - 44, 42, 41, 42 (Avg:41)
1 Janeen Smith Mt William Dunkirk Lame L1 0:00:00 14.3 - 34, 44 (Avg:44)
Junior
23 Gordon Wallace Menora Wildfire 1 8:02:00 13.5, 11.9, 11.5 12.45 35, 46, 48, 46 (Avg:46)
22 Nicole Whitehead Oso Flambeau Retired/DNE L2 6:49:00 12.5, 11.0 11.74 37, 41, 47 (Avg:44)
21 Tahnee Lee Musical Gully Serenade Retired/DNE L2 8:06:00 10.1, 9.6 9.88 31, 44, 49 (Avg:46)
25 Kate Scott Twilight Retired/DNE L2 9:08:00 9.1, 8.4 8.76 34, 39, 49 (Avg:44)
24 Madeleine Scullin Smokey Retired/DNE L2 9:08:00 9.1, 8.4 8.76 41, 42, 46 (Avg:44)